createdAt,value
2023-01-10T00:01:53.940Z,5.95
2023-01-10T00:04:21.597Z,5.88
2023-01-10T00:06:49.204Z,5.75
2023-01-10T00:09:16.810Z,5.73
2023-01-10T00:12:03.434Z,5.78
2023-01-10T00:14:33.424Z,5.75
2023-01-10T00:17:01.068Z,5.76
2023-01-10T00:19:28.859Z,5.65
2023-01-10T00:22:12.463Z,5.73
2023-01-10T00:24:42.250Z,5.74
2023-01-10T00:27:14.737Z,5.84
2023-01-10T00:29:42.347Z,5.70
2023-01-10T00:32:09.940Z,5.77
2023-01-10T00:34:37.590Z,5.72
2023-01-10T00:37:05.146Z,5.61
2023-01-10T00:39:32.769Z,5.80
2023-01-10T00:42:18.009Z,5.68
2023-01-10T00:44:47.422Z,5.60
2023-01-10T00:47:15.092Z,5.53
2023-01-10T00:49:42.658Z,5.57
2023-01-10T00:52:10.230Z,5.50
2023-01-10T00:54:37.773Z,5.48
2023-01-10T00:57:05.445Z,5.40
2023-01-10T00:59:32.997Z,5.37
2023-01-10T01:02:02.079Z,5.30
2023-01-10T01:04:33.952Z,5.30
2023-01-10T01:07:02.131Z,5.27
2023-01-10T01:09:29.983Z,5.24
2023-01-10T01:11:57.632Z,5.26
2023-01-10T01:14:25.875Z,5.29
2023-01-10T01:16:53.456Z,5.25
2023-01-10T01:19:22.327Z,5.27
2023-01-10T01:21:49.980Z,5.29
2023-01-10T01:24:17.581Z,5.30
2023-01-10T01:26:45.773Z,5.38
2023-01-10T01:29:13.762Z,5.35
2023-01-10T01:31:41.361Z,5.24
2023-01-10T01:34:09.044Z,5.22
2023-01-10T01:36:38.003Z,5.19
2023-01-10T01:39:06.167Z,5.10
2023-01-10T01:42:02.894Z,5.09
2023-01-10T01:44:32.711Z,5.07
2023-01-10T01:47:06.149Z,5.09
2023-01-10T01:49:38.140Z,5.07
2023-01-10T01:52:11.602Z,4.98
2023-01-10T01:54:39.404Z,4.99
2023-01-10T01:57:10.940Z,4.99
2023-01-10T01:59:41.711Z,4.95
2023-01-10T02:02:14.434Z,4.94
2023-01-10T02:04:48.650Z,4.98
2023-01-10T02:07:18.526Z,4.89
2023-01-10T02:09:50.652Z,4.93
2023-01-10T02:12:18.648Z,4.90
2023-01-10T02:14:49.138Z,4.88
2023-01-10T02:17:18.017Z,4.93
2023-01-10T02:19:52.717Z,4.86
2023-01-10T02:22:49.850Z,4.99
2023-01-10T02:25:49.529Z,4.78
2023-01-10T02:28:58.233Z,4.92
2023-01-10T02:31:42.966Z,4.75
2023-01-10T02:34:19.778Z,5.03
2023-01-10T02:36:57.671Z,4.94
2023-01-10T02:39:30.982Z,4.96
2023-01-10T02:42:05.643Z,4.65
2023-01-10T02:44:41.966Z,4.86
2023-01-10T02:47:10.272Z,4.78
2023-01-10T02:49:49.586Z,4.69
2023-01-10T02:52:21.872Z,4.77
2023-01-10T02:54:51.677Z,4.73
2023-01-10T02:57:48.494Z,4.57
2023-01-10T03:00:29.233Z,4.60
2023-01-10T03:03:10.171Z,4.53
2023-01-10T03:05:53.259Z,4.58
2023-01-10T03:08:31.857Z,4.70
2023-01-10T03:11:02.392Z,4.66
2023-01-10T03:13:36.326Z,4.50
2023-01-10T03:16:08.031Z,4.65
2023-01-10T03:18:41.677Z,4.62
2023-01-10T03:21:12.349Z,4.87
2023-01-10T03:23:40.666Z,4.73
2023-01-10T03:26:11.030Z,4.74
2023-01-10T03:28:46.002Z,4.68
2023-01-10T03:31:17.867Z,4.91
2023-01-10T03:33:46.117Z,4.81
2023-01-10T03:36:26.764Z,4.84
2023-01-10T03:38:56.408Z,4.75
2023-01-10T03:41:35.011Z,4.89
2023-01-10T03:44:30.966Z,4.77
2023-01-10T03:47:02.529Z,4.82
2023-01-10T03:49:31.390Z,4.76
2023-01-10T03:52:01.734Z,4.89
2023-01-10T03:54:29.915Z,4.95
2023-01-10T03:56:57.572Z,5.02
2023-01-10T03:59:27.299Z,5.03
2023-01-10T04:01:56.165Z,5.03
2023-01-10T04:04:24.124Z,5.03
2023-01-10T04:06:51.714Z,5.03
2023-01-10T04:09:20.755Z,5.12
2023-01-10T04:11:48.340Z,5.19
2023-01-10T04:14:15.912Z,5.17
2023-01-10T04:16:43.468Z,5.17
2023-01-10T04:19:11.089Z,5.23
2023-01-10T04:21:38.697Z,5.18
2023-01-10T04:24:06.913Z,5.20
2023-01-10T04:26:35.839Z,5.23
2023-01-10T04:29:03.558Z,5.28
2023-01-10T04:31:31.231Z,5.24
2023-01-10T04:33:58.875Z,5.25
2023-01-10T04:36:27.496Z,5.26
2023-01-10T04:38:55.469Z,5.25
2023-01-10T04:41:23.128Z,5.29
2023-01-10T04:43:52.235Z,5.50
2023-01-10T04:46:19.830Z,5.44
2023-01-10T04:48:47.614Z,5.44
2023-01-10T04:51:15.562Z,5.38
2023-01-10T04:53:43.140Z,5.32
2023-01-10T04:56:17.143Z,5.36
2023-01-10T04:58:44.850Z,5.38
2023-01-10T05:01:15.229Z,5.48
2023-01-10T05:03:42.988Z,5.55
2023-01-10T05:06:11.126Z,5.50
2023-01-10T05:08:38.708Z,5.51
2023-01-10T05:11:06.292Z,5.43
2023-01-10T05:13:34.020Z,5.40
2023-01-10T05:16:01.934Z,5.44
2023-01-10T05:18:31.113Z,5.50
2023-01-10T05:21:01.466Z,5.43
2023-01-10T05:23:29.507Z,5.36
2023-01-10T05:25:57.220Z,5.32
2023-01-10T05:28:25.202Z,5.30
2023-01-10T05:30:52.854Z,5.43
2023-01-10T05:33:20.497Z,5.26
2023-01-10T05:35:49.389Z,5.33
2023-01-10T05:38:16.971Z,5.51
2023-01-10T05:40:44.535Z,5.45
2023-01-10T05:43:12.673Z,5.30
2023-01-10T05:45:40.792Z,5.16
2023-01-10T05:48:08.401Z,5.36
2023-01-10T05:50:36.027Z,5.34
2023-01-10T05:53:06.052Z,5.21
2023-01-10T05:55:34.082Z,5.09
2023-01-10T05:58:01.992Z,5.16
2023-01-10T06:00:29.772Z,5.08
2023-01-10T06:02:57.873Z,5.01
2023-01-10T06:05:25.614Z,4.98
2023-01-10T06:07:53.216Z,5.09
2023-01-10T06:10:22.156Z,5.05
2023-01-10T06:12:50.058Z,5.00
2023-01-10T06:15:17.915Z,5.04
2023-01-10T06:17:45.718Z,5.06
2023-01-10T06:20:14.453Z,5.08
2023-01-10T06:22:42.986Z,5.13
2023-01-10T06:25:12.235Z,5.11
2023-01-10T06:27:41.736Z,5.07
2023-01-10T06:30:11.245Z,5.07
2023-01-10T06:32:39.210Z,5.04
2023-01-10T06:35:07.422Z,5.09
2023-01-10T06:37:35.183Z,5.04
2023-01-10T06:40:02.783Z,5.09
2023-01-10T06:42:30.381Z,5.11
2023-01-10T06:44:59.278Z,5.06
2023-01-10T06:47:26.921Z,5.12
2023-01-10T06:49:54.877Z,5.13
2023-01-10T06:52:22.615Z,5.14
2023-01-10T06:54:53.017Z,5.07
2023-01-10T06:57:20.786Z,5.25
2023-01-10T06:59:48.410Z,5.21
2023-01-10T07:02:17.438Z,5.19
2023-01-10T07:04:45.083Z,5.28
2023-01-10T07:07:12.711Z,5.24
2023-01-10T07:09:40.335Z,5.24
2023-01-10T07:12:08.126Z,5.20
2023-01-10T07:14:35.786Z,5.21
2023-01-10T07:17:03.352Z,5.28
2023-01-10T07:19:32.278Z,5.37
2023-01-10T07:21:59.943Z,5.40
2023-01-10T07:24:27.548Z,5.42
2023-01-10T07:26:56.018Z,5.28
2023-01-10T07:29:23.756Z,5.39
2023-01-10T07:31:52.622Z,5.35
2023-01-10T07:34:20.247Z,5.34
2023-01-10T07:36:49.179Z,5.44
2023-01-10T07:39:16.782Z,5.45
2023-01-10T07:41:44.578Z,5.41
2023-01-10T07:44:12.271Z,5.44
2023-01-10T07:46:39.843Z,5.38
2023-01-10T07:49:07.465Z,5.42
2023-01-10T07:51:35.088Z,5.56
2023-01-10T07:54:04.421Z,5.62
2023-01-10T07:56:32.097Z,5.65
2023-01-10T07:59:01.146Z,5.81
2023-01-10T08:01:29.563Z,5.71
2023-01-10T08:03:58.215Z,5.88
2023-01-10T08:06:25.964Z,5.89
2023-01-10T08:08:53.598Z,6.11
2023-01-10T08:11:22.616Z,5.83
2023-01-10T08:13:50.475Z,5.96
2023-01-10T08:16:20.779Z,6.02
2023-01-10T08:18:48.426Z,6.04
2023-01-10T08:21:16.077Z,6.16
2023-01-10T08:23:43.681Z,6.17
2023-01-10T08:26:11.392Z,6.19
2023-01-10T08:28:40.430Z,6.19
2023-01-10T08:31:09.114Z,6.23
2023-01-10T08:33:38.825Z,6.31
2023-01-10T08:36:06.877Z,6.32
2023-01-10T08:38:34.583Z,6.30
2023-01-10T08:41:02.202Z,6.32
2023-01-10T08:43:29.906Z,6.25
2023-01-10T08:45:58.808Z,6.22
2023-01-10T08:48:26.502Z,6.18
2023-01-10T08:50:54.115Z,6.19
2023-01-10T08:53:21.712Z,6.30
2023-01-10T08:55:50.223Z,6.14
2023-01-10T08:58:17.890Z,6.14
2023-01-10T09:00:46.007Z,6.21
2023-01-10T09:03:15.056Z,6.29
2023-01-10T09:05:42.741Z,6.35
2023-01-10T09:08:10.963Z,6.30
2023-01-10T09:10:38.746Z,6.12
2023-01-10T09:13:06.511Z,6.25
2023-01-10T09:15:36.975Z,6.29
2023-01-10T09:18:06.808Z,6.20
2023-01-10T09:20:37.960Z,6.27
2023-01-10T09:23:06.745Z,6.20
2023-01-10T09:25:34.675Z,6.19
2023-01-10T09:28:03.927Z,6.17
2023-01-10T09:30:31.809Z,6.16
2023-01-10T09:33:00.480Z,6.23
2023-01-10T09:35:30.153Z,6.38
2023-01-10T09:38:00.984Z,6.43
2023-01-10T09:40:40.917Z,6.46
2023-01-10T09:43:17.689Z,6.50
2023-01-10T09:45:54.144Z,6.36
2023-01-10T09:48:27.840Z,6.37
2023-01-10T09:51:11.927Z,6.40
2023-01-10T09:53:44.723Z,6.26
2023-01-10T09:56:15.472Z,6.23
2023-01-10T09:58:45.042Z,6.33
2023-01-10T10:01:17.837Z,6.56
2023-01-10T10:03:53.263Z,6.43
2023-01-10T10:06:22.974Z,6.46
2023-01-10T10:08:53.658Z,6.56
2023-01-10T10:11:43.464Z,6.55
2023-01-10T10:14:22.101Z,6.61
2023-01-10T10:17:02.943Z,6.60
2023-01-10T10:19:41.712Z,6.73
2023-01-10T10:22:19.832Z,6.62
2023-01-10T10:25:02.181Z,6.86
2023-01-10T10:27:37.200Z,6.90
2023-01-10T10:30:17.790Z,7.09
2023-01-10T10:33:04.698Z,6.89
2023-01-10T10:35:37.072Z,7.10
2023-01-10T10:38:10.010Z,6.85
2023-01-10T10:40:44.143Z,6.87
2023-01-10T10:43:21.057Z,6.77
2023-01-10T10:45:53.952Z,6.71
2023-01-10T10:48:26.857Z,6.94
2023-01-10T10:51:06.570Z,6.89
2023-01-10T10:53:35.624Z,6.91
2023-01-10T10:56:07.531Z,6.95
2023-01-10T10:58:35.219Z,6.89
2023-01-10T11:01:02.976Z,6.83
2023-01-10T11:03:39.740Z,6.89
2023-01-10T11:06:08.822Z,7.17
2023-01-10T11:08:39.092Z,7.45
2023-01-10T11:11:18.907Z,7.78
2023-01-10T11:13:50.983Z,8.04
2023-01-10T11:16:27.841Z,8.06
2023-01-10T11:19:22.342Z,7.93
2023-01-10T11:21:54.245Z,7.71
2023-01-10T11:24:26.918Z,7.90
2023-01-10T11:26:57.655Z,8.17
2023-01-10T11:29:27.772Z,8.69
2023-01-10T11:31:57.221Z,8.05
2023-01-10T11:34:29.862Z,8.05
2023-01-10T11:37:00.603Z,7.95
2023-01-10T11:39:29.231Z,8.19
2023-01-10T11:41:59.892Z,8.03
2023-01-10T11:44:29.398Z,8.43
2023-01-10T11:46:59.629Z,8.19
2023-01-10T11:49:31.835Z,7.87
2023-01-10T11:52:04.420Z,7.44
2023-01-10T11:54:33.784Z,7.29
2023-01-10T11:57:05.168Z,7.19
2023-01-10T11:59:33.724Z,7.29
2023-01-10T12:02:05.735Z,7.35
2023-01-10T12:04:40.617Z,7.32
2023-01-10T12:07:11.867Z,7.64
2023-01-10T12:09:43.416Z,7.55
2023-01-10T12:12:21.326Z,7.55
2023-01-10T12:14:50.440Z,7.35
2023-01-10T12:17:27.455Z,7.54
2023-01-10T12:20:00.502Z,7.49
2023-01-10T12:22:32.913Z,7.93
2023-01-10T12:25:01.877Z,8.10
2023-01-10T12:27:31.789Z,8.16
2023-01-10T12:30:05.330Z,8.17
2023-01-10T12:32:39.139Z,8.19
2023-01-10T12:35:14.960Z,8.31
2023-01-10T12:37:48.665Z,7.92
2023-01-10T12:40:20.602Z,7.66
2023-01-10T12:43:16.688Z,7.67
2023-01-10T12:45:50.119Z,7.48
2023-01-10T12:48:25.407Z,7.31
2023-01-10T12:50:58.627Z,7.18
2023-01-10T12:53:32.731Z,7.23
2023-01-10T12:56:04.753Z,7.45
2023-01-10T12:58:43.097Z,7.51
2023-01-10T13:01:15.437Z,7.94
2023-01-10T13:03:45.812Z,8.01
2023-01-10T13:06:23.572Z,7.61
2023-01-10T13:08:52.453Z,7.72
2023-01-10T13:11:23.398Z,7.83
2023-01-10T13:13:58.018Z,7.67
2023-01-10T13:16:34.085Z,7.77
2023-01-10T13:19:05.124Z,7.67
2023-01-10T13:21:34.485Z,7.53
2023-01-10T13:24:04.432Z,7.49
2023-01-10T13:26:52.239Z,7.52
2023-01-10T13:29:23.545Z,7.56
2023-01-10T13:31:57.393Z,7.71
2023-01-10T13:34:27.803Z,7.65
2023-01-10T13:36:59.218Z,7.67
2023-01-10T13:39:32.960Z,7.73
2023-01-10T13:42:48.727Z,7.97
2023-01-10T13:45:21.649Z,7.88
2023-01-10T13:48:04.838Z,8.19
2023-01-10T13:51:07.853Z,8.00
2023-01-10T13:54:06.205Z,8.03
2023-01-10T13:56:37.079Z,8.19
2023-01-10T13:59:29.157Z,8.23
2023-01-10T14:02:18.496Z,7.52
2023-01-10T14:04:51.063Z,7.43
2023-01-10T14:07:25.063Z,7.69
2023-01-10T14:09:59.039Z,7.67
2023-01-10T14:12:33.928Z,7.78
2023-01-10T14:15:06.026Z,7.78
2023-01-10T14:17:37.419Z,7.78
2023-01-10T14:20:24.688Z,7.52
2023-01-10T14:23:01.066Z,7.74
2023-01-10T14:25:29.899Z,7.85
2023-01-10T14:27:58.994Z,8.05
2023-01-10T14:30:29.766Z,8.02
2023-01-10T14:33:02.848Z,7.91
2023-01-10T14:35:35.371Z,7.59
2023-01-10T14:38:04.985Z,7.63
2023-01-10T14:40:40.788Z,7.47
2023-01-10T14:43:13.039Z,7.25
2023-01-10T14:45:49.349Z,7.48
2023-01-10T14:48:31.021Z,7.30
2023-01-10T14:51:20.764Z,7.35
2023-01-10T14:53:49.442Z,7.25
2023-01-10T14:56:22.045Z,7.22
2023-01-10T14:58:49.684Z,7.30
2023-01-10T15:01:23.823Z,7.46
2023-01-10T15:03:53.523Z,7.55
2023-01-10T15:06:21.147Z,7.50
2023-01-10T15:08:57.373Z,7.41
2023-01-10T15:11:27.711Z,7.36
2023-01-10T15:14:00.059Z,7.39
2023-01-10T15:16:29.765Z,7.33
2023-01-10T15:18:58.966Z,7.19
2023-01-10T15:21:26.807Z,7.08
2023-01-10T15:23:54.382Z,7.07
2023-01-10T15:26:30.203Z,6.97
2023-01-10T15:29:10.464Z,6.91
2023-01-10T15:31:39.113Z,6.85
2023-01-10T15:34:15.924Z,6.86
2023-01-10T15:36:47.253Z,6.93
2023-01-10T15:39:21.031Z,7.06
2023-01-10T15:41:49.079Z,7.19
2023-01-10T15:44:24.876Z,7.26
2023-01-10T15:46:56.801Z,7.01
2023-01-10T15:49:26.440Z,6.96
2023-01-10T15:51:54.149Z,7.06
2023-01-10T15:54:34.187Z,7.02
2023-01-10T15:57:08.041Z,7.10
2023-01-10T15:59:39.637Z,6.99
2023-01-10T16:02:22.611Z,6.94
2023-01-10T16:04:54.375Z,7.00
2023-01-10T16:07:26.837Z,7.12
2023-01-10T16:09:58.800Z,7.07
2023-01-10T16:12:59.400Z,7.17
2023-01-10T16:15:29.952Z,7.12
2023-01-10T16:17:58.323Z,7.21
2023-01-10T16:20:31.129Z,7.31
2023-01-10T16:23:00.975Z,7.20
2023-01-10T16:25:32.667Z,7.31
2023-01-10T16:28:00.934Z,7.24
2023-01-10T16:30:30.215Z,7.20
2023-01-10T16:32:59.247Z,7.22
2023-01-10T16:35:28.230Z,7.04
2023-01-10T16:37:57.956Z,7.16
2023-01-10T16:40:28.705Z,7.09
2023-01-10T16:43:14.239Z,7.14
2023-01-10T16:45:42.008Z,7.07
2023-01-10T16:48:10.517Z,7.12
2023-01-10T16:50:41.041Z,7.17
2023-01-10T16:53:10.385Z,7.01
2023-01-10T16:55:41.949Z,7.14
2023-01-10T16:58:10.081Z,7.17
2023-01-10T17:00:38.324Z,7.22
2023-01-10T17:03:10.102Z,7.20
2023-01-10T17:05:39.309Z,7.15
2023-01-10T17:08:07.364Z,7.08
2023-01-10T17:10:36.520Z,7.07
2023-01-10T17:13:05.821Z,7.18
2023-01-10T17:15:34.884Z,6.98
2023-01-10T17:18:02.505Z,6.98
2023-01-10T17:20:30.689Z,6.96
2023-01-10T17:22:59.624Z,7.05
2023-01-10T17:25:27.268Z,7.06
2023-01-10T17:27:54.865Z,7.08
2023-01-10T17:30:22.531Z,7.02
2023-01-10T17:32:50.112Z,6.93
2023-01-10T17:35:18.315Z,6.86
2023-01-10T17:37:49.660Z,6.93
2023-01-10T17:40:18.913Z,6.83
2023-01-10T17:42:46.935Z,6.73
2023-01-10T17:45:15.077Z,6.85
2023-01-10T17:47:42.631Z,6.42
2023-01-10T17:50:10.534Z,6.67
2023-01-10T17:52:38.210Z,6.49
2023-01-10T17:55:07.458Z,6.62
2023-01-10T17:57:39.159Z,6.51
2023-01-10T18:00:07.909Z,6.74
2023-01-10T18:02:35.594Z,6.71
2023-01-10T18:05:03.246Z,6.73
2023-01-10T18:07:30.994Z,6.84
2023-01-10T18:09:58.890Z,6.85
2023-01-10T18:12:26.454Z,6.86
2023-01-10T18:14:55.504Z,6.81
2023-01-10T18:17:23.065Z,6.91
2023-01-10T18:19:50.730Z,6.92
2023-01-10T18:22:35.842Z,6.98
2023-01-10T18:25:03.647Z,6.84
2023-01-10T18:27:31.226Z,6.92
2023-01-10T18:30:00.313Z,6.85
2023-01-10T18:32:27.989Z,6.68
2023-01-10T18:34:55.959Z,6.63
2023-01-10T18:37:23.499Z,6.65
2023-01-10T18:39:51.192Z,6.86
2023-01-10T18:42:18.941Z,6.89
2023-01-10T18:44:46.560Z,7.07
2023-01-10T18:47:15.660Z,6.96
2023-01-10T18:49:43.269Z,6.87
2023-01-10T18:52:10.907Z,6.88
2023-01-10T18:54:38.466Z,6.84
2023-01-10T18:57:06.016Z,6.91
2023-01-10T18:59:33.667Z,7.00
2023-01-10T19:02:01.315Z,6.83
2023-01-10T19:04:30.447Z,6.89
2023-01-10T19:06:58.198Z,7.02
2023-01-10T19:09:25.862Z,6.93
2023-01-10T19:11:53.522Z,6.92
2023-01-10T19:14:21.351Z,7.03
2023-01-10T19:16:49.081Z,7.06
2023-01-10T19:19:16.899Z,7.01
2023-01-10T19:21:46.011Z,7.18
2023-01-10T19:24:22.094Z,7.01
2023-01-10T19:26:50.008Z,6.96
2023-01-10T19:29:18.304Z,6.88
2023-01-10T19:31:48.161Z,6.72
2023-01-10T19:34:16.031Z,6.91
2023-01-10T19:36:45.427Z,6.93
2023-01-10T19:39:15.363Z,6.84
2023-01-10T19:41:43.551Z,6.99
2023-01-10T19:44:14.271Z,7.10
2023-01-10T19:46:44.013Z,7.08
2023-01-10T19:49:17.641Z,7.00
2023-01-10T19:51:47.575Z,6.93
2023-01-10T19:54:16.671Z,6.97
2023-01-10T19:56:44.657Z,6.98
2023-01-10T19:59:13.694Z,7.02
2023-01-10T20:01:42.014Z,7.00
2023-01-10T20:04:09.864Z,6.89
2023-01-10T20:06:39.327Z,7.03
2023-01-10T20:09:07.569Z,6.93
2023-01-10T20:11:38.327Z,6.77
2023-01-10T20:14:06.715Z,6.90
2023-01-10T20:16:34.969Z,6.94
2023-01-10T20:19:02.908Z,6.81
2023-01-10T20:21:30.604Z,6.77
2023-01-10T20:23:58.421Z,6.94
2023-01-10T20:26:26.962Z,7.01
2023-01-10T20:28:58.869Z,6.84
2023-01-10T20:31:26.631Z,6.90
2023-01-10T20:33:54.686Z,6.96
2023-01-10T20:36:24.299Z,6.94
2023-01-10T20:38:52.310Z,7.03
2023-01-10T20:41:21.719Z,7.11
2023-01-10T20:43:49.537Z,7.20
2023-01-10T20:46:20.292Z,7.01
2023-01-10T20:48:48.861Z,6.81
2023-01-10T20:51:19.302Z,7.22
2023-01-10T20:53:47.099Z,7.32
2023-01-10T20:56:17.191Z,7.15
2023-01-10T20:58:45.245Z,7.04
2023-01-10T21:01:24.834Z,7.06
2023-01-10T21:03:57.962Z,7.03
2023-01-10T21:06:25.833Z,6.79
2023-01-10T21:08:53.518Z,6.90
2023-01-10T21:11:21.976Z,7.00
2023-01-10T21:13:49.793Z,6.89
2023-01-10T21:16:20.742Z,6.87
2023-01-10T21:18:48.970Z,6.78
2023-01-10T21:21:19.455Z,6.67
2023-01-10T21:23:47.521Z,6.69
2023-01-10T21:26:16.660Z,6.57
2023-01-10T21:28:47.271Z,6.42
2023-01-10T21:31:16.266Z,6.25
2023-01-10T21:33:44.597Z,6.27
2023-01-10T21:36:13.423Z,6.13
2023-01-10T21:38:43.732Z,5.96
2023-01-10T21:41:14.599Z,5.99
2023-01-10T21:43:44.463Z,5.83
2023-01-10T21:46:12.901Z,5.86
2023-01-10T21:48:40.712Z,5.89
2023-01-10T21:51:08.299Z,5.94
2023-01-10T21:53:36.898Z,5.94
2023-01-10T21:56:06.271Z,5.91
2023-01-10T21:58:34.079Z,5.89
2023-01-10T22:01:01.722Z,5.91
2023-01-10T22:03:31.215Z,5.91
2023-01-10T22:05:58.803Z,5.85
2023-01-10T22:08:26.503Z,5.87
2023-01-10T22:10:54.193Z,5.91
2023-01-10T22:13:26.009Z,5.88
2023-01-10T22:15:58.384Z,5.97
2023-01-10T22:18:26.172Z,6.04
2023-01-10T22:20:55.649Z,6.12
2023-01-10T22:23:24.106Z,6.12
2023-01-10T22:25:59.444Z,5.93
2023-01-10T22:28:28.573Z,6.00
2023-01-10T22:30:56.660Z,6.15
2023-01-10T22:33:25.173Z,6.14
2023-01-10T22:35:52.764Z,5.92
2023-01-10T22:38:20.719Z,6.15
2023-01-10T22:40:48.314Z,6.12
2023-01-10T22:43:15.917Z,5.97
2023-01-10T22:45:44.953Z,6.08
2023-01-10T22:48:12.511Z,6.24
2023-01-10T22:50:40.526Z,6.17
2023-01-10T22:53:08.122Z,6.20
2023-01-10T22:55:35.693Z,6.07
2023-01-10T22:58:03.330Z,6.07
2023-01-10T23:00:31.130Z,6.04
2023-01-10T23:03:00.044Z,6.08
2023-01-10T23:05:27.626Z,6.07
2023-01-10T23:07:55.421Z,6.08
2023-01-10T23:10:30.256Z,6.11
2023-01-10T23:12:59.657Z,6.05
2023-01-10T23:15:27.326Z,5.99
2023-01-10T23:17:55.124Z,6.20
2023-01-10T23:20:24.191Z,6.20
2023-01-10T23:22:51.749Z,6.09
2023-01-10T23:25:19.290Z,6.17
2023-01-10T23:27:46.847Z,6.12
2023-01-10T23:30:14.848Z,6.02
2023-01-10T23:32:42.423Z,6.02
2023-01-10T23:35:10.767Z,6.12
2023-01-10T23:37:39.675Z,6.29
2023-01-10T23:40:08.276Z,6.16
2023-01-10T23:42:35.847Z,6.20
2023-01-10T23:45:03.455Z,6.11
2023-01-10T23:47:30.991Z,6.47
2023-01-10T23:49:58.534Z,6.45
2023-01-10T23:52:26.152Z,6.47
2023-01-10T23:54:55.219Z,6.48
2023-01-10T23:57:22.872Z,6.50
2023-01-10T23:59:50.414Z,6.39
